createdAt,value
2022-11-30T00:02:47.513Z,102366.59
2022-11-30T00:07:43.851Z,102377.91
2022-11-30T00:12:37.444Z,102372.81
2022-11-30T00:17:34.715Z,102365.66
2022-11-30T00:22:29.317Z,102379.91
2022-11-30T00:27:20.880Z,102386.25
2022-11-30T00:32:15.972Z,102389.69
2022-11-30T00:37:15.694Z,102386.41
2022-11-30T00:42:08.906Z,102380.28
2022-11-30T00:47:01.392Z,102388.97
2022-11-30T00:51:51.763Z,102385.63
2022-11-30T00:56:46.407Z,102373.59
2022-11-30T01:01:52.172Z,102381.09
2022-11-30T01:06:49.408Z,102376.16
2022-11-30T01:11:43.106Z,102375.09
2022-11-30T01:16:40.331Z,102391.03
2022-11-30T01:21:34.624Z,102395.09
2022-11-30T01:26:25.948Z,102386.25
2022-11-30T01:31:18.250Z,102374.22
2022-11-30T01:36:19.788Z,102383.88
2022-11-30T01:46:37.639Z,102382.59
2022-11-30T01:51:36.725Z,102390.84
2022-11-30T01:56:35.529Z,102389.22
2022-11-30T02:01:34.834Z,102400.34
2022-11-30T02:06:55.138Z,102390.47
2022-11-30T02:11:52.693Z,102404.47
2022-11-30T02:17:00.478Z,102390.41
2022-11-30T02:22:10.213Z,102401.88
2022-11-30T02:27:33.049Z,102410.44
2022-11-30T02:32:38.281Z,102401.56
2022-11-30T02:37:36.124Z,102401.63
2022-11-30T02:42:37.814Z,102398.13
2022-11-30T02:47:43.995Z,102399.41
2022-11-30T02:52:35.402Z,102405.22
2022-11-30T02:57:25.250Z,102403.00
2022-11-30T03:02:23.213Z,102396.53
2022-11-30T03:07:29.658Z,102414.63
2022-11-30T03:12:24.231Z,102410.16
2022-11-30T03:17:19.615Z,102412.53
2022-11-30T03:22:24.193Z,102414.25
2022-11-30T03:27:17.227Z,102413.88
2022-11-30T03:32:13.087Z,102428.63
2022-11-30T03:37:17.537Z,102417.19
2022-11-30T03:42:15.086Z,102425.19
2022-11-30T03:47:12.582Z,102425.25
2022-11-30T03:52:08.615Z,102435.47
2022-11-30T03:57:04.680Z,102436.34
2022-11-30T04:01:57.794Z,102436.41
2022-11-30T04:06:58.405Z,102442.56
2022-11-30T04:11:57.385Z,102438.78
2022-11-30T04:16:54.887Z,102441.41
2022-11-30T04:21:54.063Z,102443.72
2022-11-30T04:26:55.852Z,102441.78
2022-11-30T04:31:52.592Z,102443.38
2022-11-30T04:36:42.495Z,102436.25
2022-11-30T04:41:32.522Z,102433.53
2022-11-30T04:46:28.730Z,102435.81
2022-11-30T04:51:26.533Z,102440.13
2022-11-30T04:56:24.067Z,102431.53
2022-11-30T05:01:15.038Z,102430.59
2022-11-30T05:06:19.385Z,102448.72
2022-11-30T05:11:14.409Z,102439.84
2022-11-30T05:16:07.600Z,102451.16
2022-11-30T05:20:57.874Z,102456.69
2022-11-30T05:25:51.486Z,102454.13
2022-11-30T05:30:42.419Z,102454.88
2022-11-30T05:35:37.311Z,102468.66
2022-11-30T05:40:30.501Z,102455.00
2022-11-30T05:45:28.770Z,102467.78
2022-11-30T05:50:30.314Z,102460.38
2022-11-30T05:55:29.382Z,102465.38
2022-11-30T06:00:28.548Z,102465.38
2022-11-30T06:05:18.275Z,102471.47
2022-11-30T06:10:16.035Z,102472.34
2022-11-30T06:15:19.569Z,102449.53
2022-11-30T06:20:19.783Z,102469.56
2022-11-30T06:25:15.663Z,102468.31
2022-11-30T06:30:11.979Z,102467.44
2022-11-30T06:35:06.584Z,102464.13
2022-11-30T06:40:06.489Z,102464.81
2022-11-30T06:45:00.940Z,102476.97
2022-11-30T06:49:57.414Z,102476.91
2022-11-30T06:54:49.968Z,102487.13
2022-11-30T06:59:49.579Z,102492.25
2022-11-30T07:04:48.385Z,102491.44
2022-11-30T07:09:42.569Z,102492.78
2022-11-30T07:14:37.618Z,102497.97
2022-11-30T07:19:30.334Z,102487.13
2022-11-30T07:24:35.798Z,102520.28
2022-11-30T07:29:37.152Z,102533.28
2022-11-30T07:34:36.353Z,102524.47
2022-11-30T07:39:29.580Z,102527.03
2022-11-30T07:44:22.834Z,102534.16
2022-11-30T07:49:17.741Z,102543.56
2022-11-30T07:54:10.402Z,102535.56
2022-11-30T07:59:07.171Z,102536.56
2022-11-30T08:04:01.217Z,102566.41
2022-11-30T08:09:07.611Z,102561.25
2022-11-30T08:14:17.916Z,102567.19
2022-11-30T08:19:11.412Z,102576.81
2022-11-30T08:24:01.440Z,102572.31
2022-11-30T08:28:52.596Z,102555.72
2022-11-30T08:33:48.210Z,102583.13
2022-11-30T08:38:50.828Z,102565.47
2022-11-30T08:43:52.592Z,102593.69
2022-11-30T08:49:12.526Z,102589.38
2022-11-30T08:54:03.159Z,102591.19
2022-11-30T08:58:57.774Z,102617.47
2022-11-30T09:04:07.744Z,102603.22
2022-11-30T09:09:02.612Z,102586.22
2022-11-30T09:14:00.448Z,102600.66
2022-11-30T09:19:00.235Z,102606.28
2022-11-30T09:23:51.244Z,102611.06
2022-11-30T09:28:41.895Z,102609.06
2022-11-30T09:33:44.273Z,102587.53
2022-11-30T09:38:48.728Z,102604.84
2022-11-30T09:44:00.096Z,102615.72
2022-11-30T09:48:57.867Z,102616.75
2022-11-30T09:54:08.821Z,102620.31
2022-11-30T09:59:09.323Z,102625.47
2022-11-30T10:04:06.262Z,102626.88
2022-11-30T10:09:15.284Z,102630.75
2022-11-30T10:14:26.418Z,102630.53
2022-11-30T10:19:37.149Z,102622.16
2022-11-30T10:24:53.555Z,102619.06
2022-11-30T10:30:00.417Z,102615.09
2022-11-30T10:34:57.282Z,102589.53
2022-11-30T10:40:08.260Z,102602.28
2022-11-30T10:45:03.747Z,102612.22
2022-11-30T10:49:56.639Z,102602.75
2022-11-30T10:54:46.591Z,102607.50
2022-11-30T11:00:05.412Z,102622.22
2022-11-30T11:05:24.824Z,102614.03
2022-11-30T11:10:16.271Z,102611.16
2022-11-30T11:15:25.291Z,102618.63
2022-11-30T11:20:37.620Z,102611.97
2022-11-30T11:25:36.682Z,102620.59
2022-11-30T11:30:36.347Z,102596.31
2022-11-30T11:35:50.631Z,102602.78
2022-11-30T11:40:43.728Z,102603.47
2022-11-30T11:45:44.542Z,102596.84
2022-11-30T11:56:19.455Z,102602.94
2022-11-30T12:01:39.829Z,102598.66
2022-11-30T12:06:44.610Z,102597.09
2022-11-30T12:12:13.344Z,102593.78
2022-11-30T12:17:31.674Z,102585.94
2022-11-30T12:23:00.681Z,102580.81
2022-11-30T12:27:59.200Z,102584.69
2022-11-30T12:33:17.349Z,102595.50
2022-11-30T12:38:24.339Z,102593.91
2022-11-30T12:43:55.485Z,102588.91
2022-11-30T12:49:20.987Z,102592.97
2022-11-30T12:54:22.290Z,102590.91
2022-11-30T12:59:32.043Z,102598.34
2022-11-30T13:04:51.941Z,102598.94
2022-11-30T13:09:53.114Z,102620.28
2022-11-30T13:14:49.679Z,102622.81
2022-11-30T13:20:06.715Z,102612.16
2022-11-30T13:25:13.605Z,102610.63
2022-11-30T13:30:55.162Z,102615.72
2022-11-30T13:36:02.104Z,102606.13
2022-11-30T13:41:03.599Z,102611.38
2022-11-30T13:46:10.159Z,102607.63
2022-11-30T13:51:09.173Z,102612.84
2022-11-30T13:56:14.134Z,102620.63
2022-11-30T14:01:27.644Z,102617.63
2022-11-30T14:06:57.803Z,102619.91
2022-11-30T14:11:52.729Z,102630.25
2022-11-30T14:16:46.068Z,102631.69
2022-11-30T14:21:38.286Z,102637.72
2022-11-30T14:26:52.828Z,102600.59
2022-11-30T14:31:58.805Z,102656.66
2022-11-30T14:36:58.619Z,102662.59
2022-11-30T14:41:51.816Z,102657.25
2022-11-30T14:46:44.351Z,102597.53
2022-11-30T14:51:35.009Z,102637.69
2022-11-30T14:56:36.354Z,102651.72
2022-11-30T15:01:36.039Z,102640.13
2022-11-30T15:06:34.460Z,102662.78
2022-11-30T15:11:31.233Z,102651.38
2022-11-30T15:16:29.043Z,102650.34
2022-11-30T15:21:25.681Z,102656.19
2022-11-30T15:26:24.843Z,102635.72
2022-11-30T15:31:20.515Z,102643.47
2022-11-30T15:36:31.966Z,102657.16
2022-11-30T15:41:30.650Z,102666.34
2022-11-30T15:46:41.383Z,102659.69
2022-11-30T15:51:44.564Z,102671.84
2022-11-30T15:56:47.418Z,102675.00
2022-11-30T16:02:02.454Z,102679.81
2022-11-30T16:06:54.334Z,102658.47
2022-11-30T16:11:51.300Z,102680.09
2022-11-30T16:16:46.253Z,102672.97
2022-11-30T16:21:38.144Z,102676.09
2022-11-30T16:26:50.983Z,102670.22
2022-11-30T16:31:51.442Z,102683.84
2022-11-30T16:36:42.327Z,102696.44
2022-11-30T16:41:38.175Z,102696.00
2022-11-30T16:46:37.979Z,102698.81
2022-11-30T16:51:50.990Z,102702.56
2022-11-30T16:56:47.239Z,102710.56
2022-11-30T17:01:41.346Z,102699.16
2022-11-30T17:06:36.992Z,102718.13
2022-11-30T17:11:34.026Z,102727.00
2022-11-30T17:16:25.674Z,102723.88
2022-11-30T17:21:22.814Z,102738.91
2022-11-30T17:26:29.205Z,102739.16
2022-11-30T17:31:31.110Z,102738.59
2022-11-30T17:36:23.453Z,102736.47
2022-11-30T17:41:23.706Z,102731.56
2022-11-30T17:46:24.575Z,102737.31
2022-11-30T17:51:29.529Z,102734.03
2022-11-30T17:56:38.907Z,102747.56
2022-11-30T18:01:32.385Z,102741.69
2022-11-30T18:06:26.997Z,102752.75
2022-11-30T18:11:23.274Z,102753.03
2022-11-30T18:16:29.393Z,102770.38
2022-11-30T18:21:24.758Z,102754.03
2022-11-30T18:26:21.146Z,102774.75
2022-11-30T18:31:18.819Z,102785.56
2022-11-30T18:36:10.358Z,102770.38
2022-11-30T18:41:06.027Z,102714.59
2022-11-30T18:46:04.392Z,102787.31
2022-11-30T18:51:13.503Z,102777.63
2022-11-30T18:56:15.520Z,102782.41
2022-11-30T19:01:15.896Z,102792.41
2022-11-30T19:06:17.077Z,102783.56
2022-11-30T19:11:12.283Z,102793.38
2022-11-30T19:16:14.640Z,102791.50
2022-11-30T19:21:23.729Z,102780.38
2022-11-30T19:26:17.390Z,102793.44
2022-11-30T19:31:21.342Z,102801.56
2022-11-30T19:36:18.730Z,102811.59
2022-11-30T19:41:26.673Z,102813.66
2022-11-30T19:46:22.975Z,102809.19
2022-11-30T19:51:33.633Z,102813.13
2022-11-30T19:56:32.499Z,102824.88
2022-11-30T20:01:46.444Z,102822.13
2022-11-30T20:06:54.469Z,102827.16
2022-11-30T20:11:51.796Z,102816.13
2022-11-30T20:16:42.237Z,102824.63
2022-11-30T20:21:37.337Z,102846.91
2022-11-30T20:26:45.959Z,102847.47
2022-11-30T20:31:39.380Z,102850.66
2022-11-30T20:36:39.721Z,102849.34
2022-11-30T20:41:32.385Z,102847.66
2022-11-30T20:46:43.261Z,102850.66
2022-11-30T20:51:39.554Z,102851.09
2022-11-30T20:56:43.737Z,102854.88
2022-11-30T21:01:45.309Z,102848.50
2022-11-30T21:07:04.138Z,102849.66
2022-11-30T21:12:07.350Z,102841.41
2022-11-30T21:17:26.976Z,102833.19
2022-11-30T21:22:18.425Z,102830.84
2022-11-30T21:27:10.208Z,102843.66
2022-11-30T21:32:05.248Z,102843.38
2022-11-30T21:37:00.656Z,102842.41
2022-11-30T21:41:53.542Z,102840.06
2022-11-30T21:46:45.899Z,102829.63
2022-11-30T21:51:37.564Z,102835.25
2022-11-30T21:56:37.080Z,102843.81
2022-11-30T22:01:30.621Z,102852.75
2022-11-30T22:06:25.363Z,102854.31
2022-11-30T22:11:18.818Z,102849.03
2022-11-30T22:16:13.442Z,102859.06
2022-11-30T22:21:07.749Z,102863.00
2022-11-30T22:25:58.362Z,102852.94
2022-11-30T22:30:50.280Z,102857.84
2022-11-30T22:35:43.807Z,102846.22
2022-11-30T22:40:35.861Z,102864.88
2022-11-30T22:45:27.085Z,102853.25
2022-11-30T22:50:18.372Z,102864.47
2022-11-30T22:55:13.745Z,102867.59
2022-11-30T23:00:05.818Z,102869.59
2022-11-30T23:04:58.217Z,102874.84
2022-11-30T23:09:49.970Z,102862.91
2022-11-30T23:14:45.677Z,102862.19
2022-11-30T23:19:37.119Z,102873.03
2022-11-30T23:24:27.789Z,102864.47
2022-11-30T23:29:19.454Z,102832.81
2022-11-30T23:34:15.243Z,102862.09
2022-11-30T23:39:08.950Z,102875.38
2022-11-30T23:44:00.821Z,102873.69
2022-11-30T23:48:52.598Z,102850.16
2022-11-30T23:53:49.075Z,102867.59
2022-11-30T23:58:42.909Z,102868.34
